Time;durP1;ratioP1;P1;durP2;ratioP2;P2;SDS_P1;SDS_P2;PMS_P1;PMS_P2;Temp;Humidity;BMP_temperature;BMP_pressure;BME280_temperature;BME280_humidity;BME280_pressure;Samples;Min_cycle;Max_cycle;Signal;HPM_P1;HPM_P2
2022/01/21 00:00:02;;;;;;;4.63;1.30;;;22.00;58.50;;;;;;7809814;28;20198;-52
2022/01/21 00:03:48;;;;;;;4.03;1.50;;;21.90;58.50;;;;;;7809744;28;20530;-51
2022/01/21 00:07:33;;;;;;;3.55;1.40;;;21.90;58.50;;;;;;7809380;28;20203;-55
2022/01/21 00:11:20;;;;;;;3.67;1.23;;;21.90;58.50;;;;;;7809465;28;20202;-53
2022/01/21 00:15:08;;;;;;;3.05;1.40;;;21.90;58.50;;;;;;7809946;28;20183;-50
2022/01/21 00:19:00;;;;;;;4.50;1.13;;;21.80;58.60;;;;;;7808904;28;20695;-54
2022/01/21 00:30:54;;;;;;;5.07;1.50;;;21.70;58.60;;;;;;7808615;28;20207;-53
2022/01/21 00:34:39;;;;;;;3.58;1.25;;;21.70;58.60;;;;;;7808838;28;20209;-53
2022/01/21 00:38:28;;;;;;;3.50;1.20;;;21.70;58.60;;;;;;7808398;28;20253;-50
2022/01/21 00:42:33;;;;;;;2.50;1.10;;;21.70;58.60;;;;;;7808787;28;20236;-50
2022/01/21 00:46:19;;;;;;;3.70;1.38;;;21.60;58.60;;;;;;7807838;28;20186;-51
2022/01/21 00:50:05;;;;;;;4.10;1.40;;;21.60;58.50;;;;;;7807905;28;20213;-50
2022/01/21 00:53:51;;;;;;;2.92;1.00;;;21.60;58.60;;;;;;7808163;28;20237;-53
2022/01/21 00:57:37;;;;;;;4.22;1.20;;;21.60;58.50;;;;;;7807826;28;20266;-50
2022/01/21 01:01:23;;;;;;;3.42;1.27;;;21.50;58.50;;;;;;7808103;28;20196;-50
2022/01/21 01:05:09;;;;;;;5.70;1.00;;;21.50;58.50;;;;;;7808009;28;20183;-50
2022/01/21 01:08:55;;;;;;;2.45;1.00;;;21.40;58.50;;;;;;7807556;28;20226;-53
2022/01/21 01:20:30;;;;;;;3.28;1.17;;;21.40;58.40;;;;;;7807366;28;20194;-52
2022/01/21 01:28:27;;;;;;;2.40;1.08;;;21.30;58.40;;;;;;7806323;28;20218;-49
2022/01/21 01:32:12;;;;;;;3.72;1.00;;;21.30;58.40;;;;;;7807640;28;20652;-55
2022/01/21 01:35:58;;;;;;;3.65;1.20;;;21.30;58.50;;;;;;7807767;28;20248;-54
2022/01/21 01:39:47;;;;;;;2.45;1.20;;;21.30;58.40;;;;;;7807384;28;20198;-50
2022/01/21 01:51:40;;;;;;;3.47;1.20;;;21.20;58.30;;;;;;7807307;28;20646;-50
2022/01/21 01:55:26;;;;;;;3.20;1.17;;;21.20;58.30;;;;;;7807207;28;20241;-50
2022/01/21 01:59:12;;;;;;;2.25;0.90;;;21.10;58.40;;;;;;7812700;28;20206;-50
2022/01/21 02:03:08;;;;;;;3.72;1.20;;;21.10;58.30;;;;;;7813249;28;20181;-54
2022/01/21 02:06:54;;;;;;;3.45;1.05;;;21.10;58.30;;;;;;7813191;28;20193;-51
2022/01/21 02:10:42;;;;;;;4.57;1.40;;;21.10;58.20;;;;;;7812624;28;20344;-54
2022/01/21 02:14:32;;;;;;;2.70;0.82;;;21.10;58.30;;;;;;7812910;28;20178;-54
2022/01/21 02:22:26;;;;;;;4.95;1.00;;;21.10;58.30;;;;;;7812718;28;20307;-52
2022/01/21 02:26:12;;;;;;;1.85;0.80;;;21.00;58.40;;;;;;7812546;28;20178;-53
2022/01/21 02:30:03;;;;;;;4.18;1.00;;;21.00;58.40;;;;;;7812058;28;20272;-51
2022/01/21 02:33:49;;;;;;;4.35;1.05;;;21.00;58.40;;;;;;7812604;28;20659;-52
2022/01/21 02:37:35;;;;;;;7.90;1.20;;;21.00;58.40;;;;;;7811860;28;20619;-53
2022/01/21 02:41:20;;;;;;;2.67;0.93;;;20.90;58.40;;;;;;7812101;28;20175;-56
2022/01/21 02:45:08;;;;;;;3.42;1.10;;;20.90;58.10;;;;;;7812439;28;20245;-51
2022/01/21 02:48:53;;;;;;;3.45;0.90;;;20.90;58.20;;;;;;7811653;28;20206;-50
2022/01/21 02:52:54;;;;;;;1.67;0.90;;;20.90;58.30;;;;;;7812271;28;20204;-51
2022/01/21 02:56:40;;;;;;;3.17;1.05;;;20.90;58.30;;;;;;7811858;28;20260;-55
2022/01/21 03:00:26;;;;;;;2.55;1.05;;;20.90;58.40;;;;;;7811355;28;20195;-52
2022/01/21 03:04:19;;;;;;;4.45;1.45;;;20.90;58.50;;;;;;7811719;28;20386;-52
2022/01/21 03:08:06;;;;;;;3.28;0.77;;;20.90;58.40;;;;;;7810888;28;20203;-52
2022/01/21 03:11:52;;;;;;;1.80;0.80;;;20.90;58.30;;;;;;7811666;28;20305;-53
2022/01/21 03:15:37;;;;;;;3.15;0.95;;;20.90;58.30;;;;;;7811587;28;20229;-54
2022/01/21 03:19:23;;;;;;;3.30;0.82;;;20.80;58.20;;;;;;7811318;28;20600;-51
2022/01/21 03:23:10;;;;;;;4.15;0.98;;;20.80;58.20;;;;;;7811525;28;20187;-52
2022/01/21 03:26:55;;;;;;;3.92;1.35;;;20.80;58.10;;;;;;7811022;28;20710;-52
2022/01/21 03:30:41;;;;;;;3.20;1.02;;;20.80;58.10;;;;;;7810404;28;20560;-53
2022/01/21 03:34:27;;;;;;;2.75;1.10;;;20.80;58.20;;;;;;7810652;28;20182;-51
2022/01/21 03:38:12;;;;;;;1.77;1.00;;;20.90;58.40;;;;;;7810184;28;20194;-53
2022/01/21 03:41:58;;;;;;;2.53;0.98;;;20.90;58.50;;;;;;7810369;28;20183;-55
2022/01/21 03:45:43;;;;;;;1.90;0.65;;;20.90;58.70;;;;;;7810231;28;20575;-52
2022/01/21 03:49:36;;;;;;;2.55;1.00;;;20.90;58.70;;;;;;7809859;28;20217;-55
2022/01/21 03:53:22;;;;;;;3.25;1.20;;;20.90;58.80;;;;;;7810159;28;20648;-56
2022/01/21 03:57:07;;;;;;;2.40;0.90;;;20.90;58.70;;;;;;7809914;28;20170;-52
2022/01/21 04:00:55;;;;;;;3.00;0.90;;;20.90;58.80;;;;;;7809553;28;20703;-55
2022/01/21 04:04:40;;;;;;;1.95;0.88;;;20.90;59.00;;;;;;7809782;28;20210;-53
2022/01/21 04:08:26;;;;;;;2.60;0.90;;;20.90;58.90;;;;;;7809133;28;20206;-56
2022/01/21 04:12:11;;;;;;;1.83;0.82;;;21.00;59.00;;;;;;7809482;28;20633;-55
2022/01/21 04:15:58;;;;;;;2.63;1.02;;;21.00;59.10;;;;;;7809395;28;20187;-53
2022/01/21 04:19:43;;;;;;;3.15;1.00;;;21.00;59.10;;;;;;7808028;28;20202;-54
2022/01/21 04:23:29;;;;;;;3.42;1.02;;;21.00;59.10;;;;;;7809056;28;20174;-54
2022/01/21 04:27:16;;;;;;;3.00;1.10;;;20.90;59.10;;;;;;7809049;28;20544;-56
2022/01/21 04:31:01;;;;;;;1.52;1.05;;;21.00;59.00;;;;;;7808591;28;20664;-55
2022/01/21 04:34:47;;;;;;;3.03;1.08;;;20.90;59.00;;;;;;7809012;28;20549;-56
2022/01/21 04:38:33;;;;;;;3.70;1.00;;;21.00;59.00;;;;;;7808513;28;20202;-56
2022/01/21 04:50:13;;;;;;;2.72;0.52;;;20.90;58.90;;;;;;7808075;28;20258;-55
2022/01/21 04:53:58;;;;;;;3.60;0.98;;;20.90;59.00;;;;;;7808397;28;20171;-56
2022/01/21 04:57:44;;;;;;;4.43;1.30;;;21.00;59.00;;;;;;7807943;28;20237;-53
2022/01/21 05:01:29;;;;;;;3.03;0.90;;;20.90;58.90;;;;;;7808715;28;20660;-55
2022/01/21 05:05:15;;;;;;;1.98;0.80;;;20.90;59.00;;;;;;7807243;28;20174;-55
2022/01/21 05:09:01;;;;;;;2.38;0.80;;;20.90;59.20;;;;;;7830056;28;20725;-54
2022/01/21 05:12:46;;;;;;;6.28;1.10;;;21.00;59.00;;;;;;7817304;28;20178;-53
2022/01/21 05:16:36;;;;;;;4.28;1.08;;;20.90;59.00;;;;;;7806933;28;20236;-54
2022/01/21 05:20:22;;;;;;;2.22;0.80;;;20.90;59.00;;;;;;7806739;28;20190;-51
2022/01/21 05:24:07;;;;;;;4.15;1.17;;;21.00;59.00;;;;;;7818475;28;20272;-51
2022/01/21 05:27:55;;;;;;;8.40;1.13;;;21.00;59.00;;;;;;7837038;28;20236;-54
2022/01/21 05:31:40;;;;;;;3.70;1.10;;;21.00;59.00;;;;;;7836749;28;20695;-52
2022/01/21 05:35:26;;;;;;;8.50;1.23;;;21.00;58.90;;;;;;7837516;28;20554;-54
2022/01/21 05:39:13;;;;;;;2.65;0.80;;;21.00;58.90;;;;;;7836819;28;20210;-52
2022/01/21 05:42:59;;;;;;;6.53;0.95;;;21.00;58.90;;;;;;7830894;28;20182;-54
2022/01/21 05:46:57;;;;;;;11.85;1.23;;;21.00;59.30;;;;;;7836390;28;20715;-51
2022/01/21 05:50:43;;;;;;;8.60;1.45;;;21.00;59.60;;;;;;7836732;28;20217;-52
2022/01/21 05:54:28;;;;;;;15.77;3.53;;;21.00;59.30;;;;;;7836953;28;20209;-53
2022/01/21 05:58:14;;;;;;;19.80;2.60;;;21.00;56.80;;;;;;7836369;28;20229;-54
2022/01/21 06:01:59;;;;;;;11.57;2.67;;;20.80;56.10;;;;;;7827154;28;20281;-56
2022/01/21 06:05:45;;;;;;;12.77;2.78;;;20.70;56.80;;;;;;7806636;28;20273;-56
2022/01/21 06:09:30;;;;;;;14.48;3.22;;;20.70;57.10;;;;;;7836246;28;20728;-52
2022/01/21 06:13:18;;;;;;;18.33;2.50;;;20.70;57.80;;;;;;7836702;28;20192;-54
2022/01/21 06:17:04;;;;;;;22.23;2.80;;;20.80;58.20;;;;;;7836384;28;20658;-55
2022/01/21 06:20:50;;;;;;;13.32;2.45;;;20.90;58.30;;;;;;7834338;28;20178;-56
2022/01/21 06:24:35;;;;;;;15.10;2.45;;;21.00;58.30;;;;;;7805816;28;20411;-52
2022/01/21 06:28:21;;;;;;;25.55;3.00;;;21.10;58.30;;;;;;7805114;28;20222;-50
2022/01/21 06:32:07;;;;;;;13.35;2.70;;;21.20;58.70;;;;;;7805535;28;20758;-54
2022/01/21 06:35:53;;;;;;;7.05;2.42;;;21.40;59.10;;;;;;7807993;28;20623;-55
2022/01/21 06:39:38;;;;;;;11.85;2.28;;;21.60;59.80;;;;;;7836034;28;20675;-55
2022/01/21 06:43:24;;;;;;;22.58;2.60;;;21.70;60.00;;;;;;7839058;28;20217;-55
2022/01/21 06:47:09;;;;;;;11.85;2.55;;;21.80;60.60;;;;;;7841844;28;20181;-55
2022/01/21 06:50:55;;;;;;;12.02;2.28;;;21.90;61.00;;;;;;7823220;28;20675;-54
2022/01/21 06:54:41;;;;;;;10.43;2.30;;;22.00;60.70;;;;;;7816914;28;20195;-50
2022/01/21 06:58:26;;;;;;;6.28;1.80;;;22.10;60.40;;;;;;7810353;28;20194;-51
2022/01/21 07:02:12;;;;;;;5.47;1.85;;;22.20;60.00;;;;;;7810997;28;20301;-51
2022/01/21 07:05:59;;;;;;;5.10;1.83;;;22.20;60.20;;;;;;7814413;28;20235;-51
2022/01/21 07:09:45;;;;;;;7.03;1.65;;;22.30;59.80;;;;;;7841166;28;20225;-53
2022/01/21 07:13:31;;;;;;;6.20;2.10;;;22.20;59.80;;;;;;7839777;28;20178;-52
2022/01/21 07:17:16;;;;;;;16.20;2.10;;;22.20;59.30;;;;;;7810489;28;20163;-57
2022/01/21 07:21:02;;;;;;;17.42;1.70;;;22.20;59.30;;;;;;7814720;28;20192;-54
2022/01/21 07:24:47;;;;;;;13.85;2.00;;;22.20;55.30;;;;;;7828157;28;20199;-55
2022/01/21 07:28:33;;;;;;;10.23;2.22;;;21.80;54.90;;;;;;7809315;28;20206;-55
2022/01/21 07:32:19;;;;;;;19.98;2.08;;;21.60;56.70;;;;;;7809904;28;20198;-51
2022/01/21 07:36:06;;;;;;;8.32;1.80;;;21.70;57.80;;;;;;7814402;28;20268;-55
2022/01/21 07:39:51;;;;;;;13.57;2.10;;;21.80;59.00;;;;;;7840545;28;20209;-51
2022/01/21 07:43:38;;;;;;;15.05;1.85;;;22.00;59.40;;;;;;7839797;28;20257;-55
2022/01/21 07:47:24;;;;;;;9.73;1.58;;;22.20;59.80;;;;;;7803514;28;20202;-54
2022/01/21 07:51:09;;;;;;;9.35;1.45;;;22.40;60.00;;;;;;7833772;28;20225;-55
2022/01/21 07:54:55;;;;;;;8.20;1.55;;;22.60;60.20;;;;;;7809310;28;20671;-55
2022/01/21 07:58:40;;;;;;;16.08;1.88;;;22.70;60.40;;;;;;7808368;28;20260;-53
2022/01/21 08:02:27;;;;;;;7.00;1.42;;;22.90;60.40;;;;;;7808913;28;20569;-52
2022/01/21 08:06:13;;;;;;;17.15;1.40;;;23.00;60.50;;;;;;7815448;28;20252;-53
2022/01/21 08:09:58;;;;;;;9.23;1.77;;;23.20;60.60;;;;;;7839066;28;20292;-54
2022/01/21 08:13:44;;;;;;;8.32;1.85;;;23.20;60.70;;;;;;7839411;28;20197;-55
2022/01/21 08:17:29;;;;;;;4.88;1.30;;;23.30;60.70;;;;;;7838929;28;20198;-56
2022/01/21 08:21:18;;;;;;;13.52;1.40;;;23.40;60.90;;;;;;7829663;28;20534;-53
2022/01/21 08:25:04;;;;;;;21.35;1.50;;;23.40;60.80;;;;;;7810938;28;20221;-55
2022/01/21 08:28:52;;;;;;;6.90;1.50;;;23.40;60.80;;;;;;7807699;28;20206;-53
2022/01/21 08:32:37;;;;;;;25.98;2.08;;;23.40;60.40;;;;;;7807903;28;20202;-55
2022/01/21 08:36:24;;;;;;;24.92;1.80;;;23.40;61.20;;;;;;7816367;28;20323;-56
2022/01/21 08:40:10;;;;;;;24.80;2.75;;;23.40;61.20;;;;;;7838442;28;20683;-54
2022/01/21 08:43:56;;;;;;;13.23;1.20;;;23.50;61.40;;;;;;7838348;28;20190;-53
2022/01/21 08:47:42;;;;;;;10.95;1.60;;;23.50;61.60;;;;;;7836363;28;20208;-53
2022/01/21 08:51:38;;;;;;;9.60;1.67;;;23.50;61.70;;;;;;7828727;28;20608;-55
2022/01/21 08:55:24;;;;;;;13.55;2.17;;;23.50;61.80;;;;;;7807688;28;20174;-53
2022/01/21 08:59:10;;;;;;;17.38;1.60;;;23.50;61.60;;;;;;7807135;28;20287;-52
2022/01/21 09:02:56;;;;;;;11.50;2.67;;;23.50;62.00;;;;;;7807342;28;20174;-51
2022/01/21 09:06:42;;;;;;;12.15;1.88;;;23.40;62.00;;;;;;7806793;28;20839;-51
2022/01/21 09:10:27;;;;;;;14.32;2.20;;;23.50;62.30;;;;;;7806793;28;20217;-51
2022/01/21 09:14:13;;;;;;;21.35;1.88;;;23.50;62.40;;;;;;7806816;28;20545;-51
2022/01/21 09:18:03;;;;;;;22.85;2.05;;;23.50;62.40;;;;;;7806669;28;20195;-51
2022/01/21 09:21:51;;;;;;;8.70;1.98;;;23.50;62.50;;;;;;7819689;28;20604;-52
2022/01/21 09:25:37;;;;;;;7.88;1.60;;;23.20;56.50;;;;;;7837496;28;20224;-53
2022/01/21 09:29:22;;;;;;;15.40;1.73;;;23.00;59.70;;;;;;7836874;28;20217;-51
2022/01/21 09:33:08;;;;;;;10.70;1.50;;;23.10;60.60;;;;;;7814814;28;20240;-51
2022/01/21 09:36:55;;;;;;;8.30;1.83;;;23.10;59.70;;;;;;7819734;28;20728;-53
2022/01/21 09:40:44;;;;;;;9.48;2.40;;;23.00;59.50;;;;;;7836844;28;20201;-53
2022/01/21 09:44:32;;;;;;;15.05;2.10;;;23.10;58.70;;;;;;7824522;28;20232;-52
2022/01/21 09:48:23;;;;;;;6.38;1.80;;;23.00;58.70;;;;;;7820222;28;20201;-52
2022/01/21 09:52:11;;;;;;;6.20;2.25;;;23.00;59.90;;;;;;7823702;28;20237;-53
2022/01/21 09:55:58;;;;;;;12.65;2.22;;;22.90;58.40;;;;;;7817901;28;20679;-51
2022/01/21 09:59:45;;;;;;;16.95;3.40;;;22.90;59.30;;;;;;7808258;28;20232;-55
2022/01/21 10:03:32;;;;;;;23.05;2.60;;;22.90;56.30;;;;;;7819402;28;20235;-54
2022/01/21 10:07:19;;;;;;;17.63;1.77;;;22.60;56.90;;;;;;7810731;28;20201;-54
2022/01/21 10:11:05;;;;;;;9.50;1.92;;;22.60;59.40;;;;;;7806717;28;20221;-54
2022/01/21 10:14:51;;;;;;;8.52;2.03;;;22.80;60.00;;;;;;7832076;28;20269;-54
2022/01/21 10:18:37;;;;;;;7.32;1.70;;;23.00;60.20;;;;;;7831642;28;20206;-52
2022/01/21 10:22:25;;;;;;;10.88;1.63;;;23.20;60.30;;;;;;7830406;28;20247;-55
2022/01/21 10:26:14;;;;;;;5.80;1.55;;;23.30;61.20;;;;;;7842640;28;20549;-53
2022/01/21 10:30:00;;;;;;;10.10;1.73;;;23.40;60.30;;;;;;7823488;28;20206;-55
2022/01/21 10:33:52;;;;;;;10.18;1.90;;;23.60;60.50;;;;;;7811600;28;20608;-54
2022/01/21 10:37:37;;;;;;;18.48;2.42;;;23.60;60.60;;;;;;7831925;28;20240;-55
2022/01/21 10:41:31;;;;;;;11.38;1.98;;;23.60;60.10;;;;;;7815945;28;20190;-55
2022/01/21 10:45:17;;;;;;;19.50;2.78;;;23.60;60.40;;;;;;7811380;28;20224;-53
2022/01/21 10:49:06;;;;;;;7.43;1.75;;;23.60;60.60;;;;;;7814722;28;20920;-56
2022/01/21 10:52:53;;;;;;;10.10;2.03;;;23.60;60.70;;;;;;7811092;28;20282;-53
2022/01/21 10:56:39;;;;;;;10.77;2.15;;;23.60;60.80;;;;;;7841422;28;20825;-56
2022/01/21 11:00:24;;;;;;;11.02;1.77;;;23.60;60.90;;;;;;7842048;28;20551;-56
2022/01/21 11:04:11;;;;;;;5.18;1.50;;;23.60;61.00;;;;;;7842342;28;20178;-52
2022/01/21 11:08:05;;;;;;;15.23;1.73;;;23.50;61.10;;;;;;7817098;28;20293;-51
2022/01/21 11:12:07;;;;;;;7.10;1.70;;;23.50;61.10;;;;;;7812968;28;20712;-51
2022/01/21 11:15:59;;;;;;;9.13;1.55;;;23.50;61.20;;;;;;7810600;28;20229;-52
2022/01/21 11:20:16;;;;;;;9.00;1.65;;;23.50;61.30;;;;;;7812163;28;20206;-51
2022/01/21 11:24:07;;;;;;;8.45;1.60;;;23.40;61.40;;;;;;7775607;28;20191;-52
2022/01/21 11:27:55;;;;;;;18.58;3.65;;;23.40;60.40;;;;;;7774063;28;20710;-51
2022/01/21 11:31:41;;;;;;;8.32;2.50;;;23.30;59.70;;;;;;7796349;28;20724;-52
2022/01/21 11:35:28;;;;;;;7.20;2.00;;;23.20;60.20;;;;;;7805770;28;20550;-54
2022/01/21 11:39:16;;;;;;;6.57;2.17;;;23.20;60.30;;;;;;7805180;28;20207;-51
2022/01/21 11:43:04;;;;;;;7.03;2.58;;;23.20;59.30;;;;;;7790403;28;20195;-51
2022/01/21 11:50:57;;;;;;;5.57;1.88;;;23.20;61.00;;;;;;7802606;28;20206;-52
2022/01/21 11:54:43;;;;;;;6.93;1.83;;;23.20;61.00;;;;;;7805048;28;20190;-51
2022/01/21 11:58:28;;;;;;;10.93;1.85;;;23.30;61.20;;;;;;7795914;28;20694;-52
2022/01/21 12:02:23;;;;;;;40.50;3.40;;;23.30;60.60;;;;;;7808997;28;20288;-56
2022/01/21 12:06:32;;;;;;;68.38;4.53;;;23.40;61.00;;;;;;7819028;28;20673;-53
2022/01/21 12:10:21;;;;;;;77.63;5.68;;;23.40;61.10;;;;;;7809157;28;20701;-51
2022/01/21 12:14:34;;;;;;;59.22;4.55;;;23.60;61.00;;;;;;7808723;28;20202;-53
2022/01/21 12:22:19;;;;;;;38.47;3.95;;;24.00;61.30;;;;;;7828347;28;20177;-55
2022/01/21 12:26:14;;;;;;;47.83;4.05;;;24.10;61.30;;;;;;7839128;28;20170;-53
2022/01/21 12:30:19;;;;;;;48.03;4.82;;;24.20;61.30;;;;;;7838649;28;20209;-51
2022/01/21 12:34:08;;;;;;;39.55;3.85;;;24.20;61.20;;;;;;7838898;28;20169;-53
2022/01/21 12:42:23;;;;;;;17.23;2.58;;;24.30;61.20;;;;;;7811035;28;20186;-53
2022/01/21 12:46:39;;;;;;;40.17;3.58;;;24.30;61.30;;;;;;7807441;28;20216;-56
2022/01/21 12:50:36;;;;;;;23.05;2.65;;;24.30;61.20;;;;;;7747686;28;20227;-51
2022/01/21 12:58:37;;;;;;;43.78;5.28;;;24.20;60.20;;;;;;7772098;28;20266;-54
2022/01/21 13:02:25;;;;;;;39.88;3.42;;;24.10;61.10;;;;;;7761554;28;20216;-53
2022/01/21 13:06:19;;;;;;;46.95;3.95;;;24.20;61.30;;;;;;7752246;28;20271;-56
2022/01/21 13:10:25;;;;;;;32.65;4.07;;;24.20;61.50;;;;;;7749823;28;20235;-54
2022/01/21 13:18:11;;;;;;;32.15;3.35;;;24.20;61.40;;;;;;7771646;28;20628;-55
2022/01/21 13:21:56;;;;;;;30.70;3.60;;;24.10;61.40;;;;;;7772152;28;20187;-54
2022/01/21 13:25:45;;;;;;;27.52;3.95;;;24.10;61.70;;;;;;7791505;28;20679;-52
2022/01/21 13:29:34;;;;;;;41.35;3.75;;;24.00;61.70;;;;;;7836966;28;20217;-53
2022/01/21 13:33:19;;;;;;;20.45;3.10;;;24.00;61.80;;;;;;7838111;28;20219;-52
2022/01/21 13:37:10;;;;;;;23.67;3.35;;;23.90;61.70;;;;;;7827190;28;22087;-60
2022/01/21 13:40:57;;;;;;;24.60;3.20;;;23.90;58.20;;;;;;7834608;28;20613;-53
2022/01/21 13:44:47;;;;;;;17.65;3.03;;;23.80;61.50;;;;;;7836124;28;20189;-52
2022/01/21 13:48:34;;;;;;;18.65;2.83;;;23.70;61.50;;;;;;7816949;28;20213;-54
2022/01/21 13:52:19;;;;;;;14.90;2.88;;;23.70;61.70;;;;;;7811163;28;20209;-51
2022/01/21 13:56:08;;;;;;;16.63;3.33;;;23.70;61.00;;;;;;7819050;28;20178;-51
2022/01/21 13:59:53;;;;;;;15.30;2.80;;;23.70;61.50;;;;;;7818163;28;20281;-54
2022/01/21 14:03:43;;;;;;;13.32;2.58;;;23.60;61.40;;;;;;7830442;28;20187;-51
2022/01/21 14:07:31;;;;;;;10.80;2.47;;;23.70;61.40;;;;;;7845457;28;20210;-53
2022/01/21 14:11:26;;;;;;;14.60;2.53;;;23.70;61.40;;;;;;7829406;28;20210;-54
2022/01/21 14:15:12;;;;;;;9.90;2.42;;;23.70;61.30;;;;;;7846042;28;20193;-53
2022/01/21 14:19:00;;;;;;;10.35;2.33;;;23.80;61.20;;;;;;7819421;28;20251;-55
2022/01/21 14:22:46;;;;;;;12.13;2.45;;;23.80;61.10;;;;;;7841359;28;20232;-52
2022/01/21 14:26:45;;;;;;;12.70;2.78;;;23.90;61.10;;;;;;7839006;28;20190;-52
2022/01/21 14:30:39;;;;;;;8.43;2.10;;;23.90;60.90;;;;;;7818092;28;20209;-50
2022/01/21 14:34:27;;;;;;;9.15;2.28;;;24.00;60.90;;;;;;7808792;28;20751;-55
2022/01/21 14:38:12;;;;;;;7.35;2.30;;;24.00;60.80;;;;;;7830457;28;20197;-51
2022/01/21 14:41:58;;;;;;;10.00;2.10;;;24.10;60.80;;;;;;7831652;28;20243;-54
2022/01/21 14:46:04;;;;;;;9.52;2.33;;;24.10;60.70;;;;;;7826920;28;20324;-54
2022/01/21 14:49:56;;;;;;;5.13;1.67;;;24.10;60.50;;;;;;7816257;28;20217;-53
2022/01/21 14:53:44;;;;;;;3.47;1.70;;;24.10;60.50;;;;;;7835071;28;20558;-54
2022/01/21 14:57:31;;;;;;;5.22;1.88;;;24.10;60.50;;;;;;7835511;28;20692;-52
2022/01/21 15:01:16;;;;;;;6.10;1.70;;;24.20;60.50;;;;;;7829455;28;20549;-52
2022/01/21 15:05:05;;;;;;;8.40;1.55;;;24.10;60.50;;;;;;7811995;28;20201;-51
2022/01/21 15:08:59;;;;;;;6.85;2.00;;;24.20;60.40;;;;;;7842063;28;20206;-51
2022/01/21 15:16:49;;;;;;;3.92;1.50;;;24.20;60.40;;;;;;7842539;28;20174;-51
2022/01/21 15:20:38;;;;;;;5.10;1.98;;;24.20;60.40;;;;;;7813572;28;20760;-52
2022/01/21 15:24:23;;;;;;;7.75;1.70;;;24.20;60.40;;;;;;7811017;28;20767;-51
2022/01/21 15:28:09;;;;;;;5.60;1.95;;;24.20;60.40;;;;;;7826231;28;20578;-53
2022/01/21 15:31:55;;;;;;;4.35;1.50;;;24.20;60.40;;;;;;7822544;28;20194;-51
2022/01/21 15:35:40;;;;;;;6.25;1.83;;;24.20;60.40;;;;;;7815793;28;20182;-51
2022/01/21 15:39:26;;;;;;;5.28;1.48;;;24.20;60.40;;;;;;7837197;28;20281;-52
2022/01/21 15:43:12;;;;;;;4.50;1.63;;;24.30;60.40;;;;;;7814152;28;20219;-53
2022/01/21 15:46:57;;;;;;;5.53;1.30;;;24.20;60.20;;;;;;7811125;28;20728;-52
2022/01/21 15:50:44;;;;;;;6.90;1.50;;;24.20;60.10;;;;;;7837276;28;20222;-52
2022/01/21 15:54:29;;;;;;;8.35;1.85;;;24.20;60.00;;;;;;7822061;28;20215;-50
2022/01/21 15:58:15;;;;;;;15.70;3.15;;;24.20;59.80;;;;;;7825809;28;20206;-51
2022/01/21 16:02:00;;;;;;;7.00;2.17;;;24.20;59.50;;;;;;7812341;28;20179;-52
2022/01/21 16:05:45;;;;;;;4.85;1.42;;;24.20;59.40;;;;;;7811221;28;20183;-50
2022/01/21 16:09:31;;;;;;;9.50;1.52;;;24.30;59.90;;;;;;7811471;28;20574;-55
2022/01/21 16:13:17;;;;;;;8.05;1.63;;;24.30;59.60;;;;;;7824886;28;20651;-52
2022/01/21 16:17:03;;;;;;;6.18;1.70;;;24.40;59.60;;;;;;7839354;28;20885;-51
2022/01/21 16:20:49;;;;;;;6.78;1.55;;;24.50;60.00;;;;;;7830769;28;20182;-53
2022/01/21 16:24:35;;;;;;;6.28;1.67;;;24.60;59.70;;;;;;7820940;28;20226;-55
2022/01/21 16:28:21;;;;;;;6.53;1.83;;;24.60;59.20;;;;;;7808843;28;20207;-51
2022/01/21 16:32:07;;;;;;;9.05;1.58;;;24.80;59.80;;;;;;7808948;28;20217;-51
2022/01/21 16:35:53;;;;;;;12.48;1.80;;;24.90;59.90;;;;;;7817806;28;20269;-52
2022/01/21 16:39:39;;;;;;;7.88;1.60;;;25.00;59.90;;;;;;7838229;28;20252;-54
2022/01/21 16:43:24;;;;;;;8.07;1.60;;;25.00;59.80;;;;;;7839554;28;20219;-55
2022/01/21 16:47:10;;;;;;;10.05;1.73;;;25.10;60.00;;;;;;7833824;28;20186;-54
2022/01/21 16:50:57;;;;;;;23.23;2.30;;;25.20;60.00;;;;;;7814473;28;20219;-51
2022/01/21 16:54:42;;;;;;;12.75;1.77;;;25.20;60.00;;;;;;7834851;28;20181;-51
2022/01/21 16:58:28;;;;;;;9.48;1.85;;;25.20;60.20;;;;;;7824036;28;20293;-55
2022/01/21 17:02:13;;;;;;;5.40;1.48;;;25.20;60.30;;;;;;7808299;28;20182;-52
2022/01/21 17:05:59;;;;;;;6.55;1.70;;;25.10;60.50;;;;;;7808093;28;20185;-54
2022/01/21 17:09:45;;;;;;;8.30;1.17;;;25.10;60.60;;;;;;7828826;28;20301;-54
2022/01/21 17:13:30;;;;;;;7.38;1.38;;;25.00;60.70;;;;;;7839215;28;20166;-55
2022/01/21 17:17:18;;;;;;;6.82;1.77;;;25.00;60.80;;;;;;7838932;28;20177;-55
2022/01/21 17:21:03;;;;;;;8.50;1.33;;;24.90;61.00;;;;;;7838964;28;20674;-52
2022/01/21 17:24:49;;;;;;;5.30;1.35;;;24.90;61.20;;;;;;7823191;28;20578;-52
2022/01/21 17:28:35;;;;;;;6.50;1.48;;;24.80;61.50;;;;;;7836395;28;20200;-54
2022/01/21 17:32:20;;;;;;;7.40;1.60;;;24.70;61.80;;;;;;7836856;28;20864;-55
2022/01/21 17:36:06;;;;;;;12.63;1.60;;;24.60;61.60;;;;;;7836234;28;20170;-50
2022/01/21 17:39:52;;;;;;;3.72;1.30;;;24.50;61.90;;;;;;7826947;28;20214;-56
2022/01/21 17:43:37;;;;;;;5.50;1.45;;;24.40;61.80;;;;;;7805601;28;20183;-54
2022/01/21 17:47:23;;;;;;;9.35;1.48;;;24.30;61.80;;;;;;7827183;28;20596;-53
2022/01/21 17:51:11;;;;;;;4.28;1.50;;;24.20;61.70;;;;;;7832710;28;20209;-51
2022/01/21 17:54:57;;;;;;;7.53;1.58;;;24.20;61.90;;;;;;7815991;28;20190;-50
2022/01/21 17:58:42;;;;;;;6.38;1.40;;;24.10;62.50;;;;;;7804730;28;20293;-52
2022/01/21 18:02:28;;;;;;;14.73;2.13;;;24.00;63.70;;;;;;7821707;28;20190;-53
2022/01/21 18:06:14;;;;;;;19.85;2.08;;;23.80;63.20;;;;;;7837402;28;20286;-50
2022/01/21 18:10:08;;;;;;;13.05;1.85;;;23.70;64.60;;;;;;7837179;28;20237;-54
2022/01/21 18:13:54;;;;;;;20.95;2.47;;;23.70;64.60;;;;;;7837240;28;20198;-54
2022/01/21 18:17:41;;;;;;;19.98;2.15;;;23.70;64.60;;;;;;7836826;28;20198;-50
2022/01/21 18:21:27;;;;;;;18.58;1.75;;;23.70;64.60;;;;;;7837598;28;20177;-54
2022/01/21 18:25:12;;;;;;;11.40;1.80;;;23.80;64.40;;;;;;7837562;28;20178;-51
2022/01/21 18:28:58;;;;;;;17.02;1.92;;;23.90;64.40;;;;;;7836692;28;20209;-52
2022/01/21 18:32:43;;;;;;;13.90;1.80;;;23.90;64.20;;;;;;7836956;28;20602;-51
2022/01/21 18:36:29;;;;;;;11.80;1.80;;;24.00;64.20;;;;;;7836899;28;20188;-54
2022/01/21 18:40:15;;;;;;;11.93;1.75;;;24.00;64.00;;;;;;7840901;28;20198;-52
2022/01/21 18:44:01;;;;;;;13.35;2.13;;;24.10;63.70;;;;;;7843015;28;20273;-54
2022/01/21 18:47:47;;;;;;;7.85;2.20;;;24.20;63.50;;;;;;7842365;28;20202;-51
2022/01/21 18:51:33;;;;;;;7.95;1.65;;;24.20;63.30;;;;;;7842692;28;20202;-53
2022/01/21 18:55:20;;;;;;;4.55;1.50;;;24.30;63.20;;;;;;7842326;28;20185;-54
2022/01/21 18:59:06;;;;;;;4.05;1.58;;;24.30;63.00;;;;;;7842204;28;20280;-54
2022/01/21 19:02:53;;;;;;;5.25;1.30;;;24.30;63.00;;;;;;7842525;28;20542;-53
2022/01/21 19:06:38;;;;;;;7.43;1.48;;;24.30;62.70;;;;;;7842368;28;20273;-51
2022/01/21 19:10:26;;;;;;;4.72;1.33;;;24.40;62.80;;;;;;7841964;28;20217;-54
2022/01/21 19:14:12;;;;;;;5.80;1.58;;;24.40;62.60;;;;;;7841922;28;20170;-55
2022/01/21 19:17:59;;;;;;;4.57;1.73;;;24.40;62.50;;;;;;7841629;28;20705;-55
2022/01/21 19:21:51;;;;;;;7.82;1.50;;;24.40;62.40;;;;;;7842070;28;20182;-54
2022/01/21 19:25:42;;;;;;;5.32;1.30;;;24.40;62.40;;;;;;7842359;28;20178;-50
2022/01/21 19:29:27;;;;;;;3.35;1.33;;;24.40;62.00;;;;;;7819067;28;20217;-50
2022/01/21 19:33:13;;;;;;;7.55;1.75;;;24.30;62.00;;;;;;7810547;28;20175;-51
2022/01/21 19:36:58;;;;;;;7.57;1.88;;;24.20;57.60;;;;;;7810294;28;20182;-52
2022/01/21 19:40:45;;;;;;;4.75;1.80;;;24.10;61.10;;;;;;7810347;28;20559;-53
2022/01/21 19:44:32;;;;;;;14.77;1.80;;;24.10;61.30;;;;;;7810389;28;20198;-53
2022/01/21 19:48:23;;;;;;;10.50;2.33;;;24.10;61.10;;;;;;7809770;28;20684;-51
2022/01/21 19:52:08;;;;;;;11.32;1.88;;;24.10;60.90;;;;;;7810233;28;20206;-51
2022/01/21 19:55:53;;;;;;;15.75;2.17;;;24.10;61.20;;;;;;7809638;28;20187;-51
2022/01/21 19:59:56;;;;;;;4.25;1.50;;;24.00;60.30;;;;;;7809620;28;20245;-54
2022/01/21 20:11:47;;;;;;;7.70;1.70;;;23.90;61.10;;;;;;7813995;28;20995;-53
2022/01/21 20:15:34;;;;;;;13.07;2.00;;;23.90;61.70;;;;;;7807893;28;20174;-52
2022/01/21 20:19:21;;;;;;;12.95;1.70;;;23.90;62.00;;;;;;7808125;28;20202;-51
2022/01/21 20:23:07;;;;;;;20.98;1.75;;;23.90;62.20;;;;;;7819448;28;20193;-50
2022/01/21 20:26:54;;;;;;;11.43;2.00;;;23.80;62.40;;;;;;7839104;28;20177;-52
2022/01/21 20:30:40;;;;;;;20.35;2.22;;;23.80;62.60;;;;;;7838493;28;20201;-51
2022/01/21 20:34:26;;;;;;;8.18;2.15;;;23.80;62.60;;;;;;7838352;28;20176;-50
2022/01/21 20:38:18;;;;;;;7.00;1.88;;;23.70;62.10;;;;;;7838173;28;20671;-55
2022/01/21 20:42:05;;;;;;;10.70;2.15;;;23.70;62.20;;;;;;7838654;28;20190;-55
2022/01/21 20:45:51;;;;;;;19.95;2.03;;;23.60;61.00;;;;;;7838440;28;20201;-54
2022/01/21 20:49:37;;;;;;;13.05;1.70;;;23.60;61.90;;;;;;7837823;28;20233;-51